createdAt,value
2023-11-05T00:00:42.951Z,95316.34
2023-11-05T00:03:05.958Z,95319.77
2023-11-05T00:05:10.018Z,95317.42
2023-11-05T00:07:12.754Z,95304.70
2023-11-05T00:09:16.387Z,95306.84
2023-11-05T00:11:18.937Z,95305.83
2023-11-05T00:13:21.550Z,95303.46
2023-11-05T00:15:24.404Z,95300.08
2023-11-05T00:17:27.165Z,95298.11
2023-11-05T00:19:29.926Z,95295.08
2023-11-05T00:21:32.716Z,95291.36
2023-11-05T00:23:35.426Z,95291.42
2023-11-05T00:25:38.618Z,95290.40
2023-11-05T00:27:41.248Z,95291.83
2023-11-05T00:29:44.148Z,95294.92
2023-11-05T00:31:46.992Z,95299.44
2023-11-05T00:33:49.800Z,95301.77
2023-11-05T00:35:52.897Z,95293.58
2023-11-05T00:37:57.039Z,95291.49
2023-11-05T00:40:03.340Z,95289.39
2023-11-05T00:42:08.255Z,95285.95
2023-11-05T00:44:12.790Z,95284.95
2023-11-05T00:46:16.804Z,95281.33
2023-11-05T00:48:19.500Z,95280.84
2023-11-05T00:50:22.250Z,95282.27
2023-11-05T00:52:24.912Z,95287.04
2023-11-05T00:54:27.610Z,95293.19
2023-11-05T00:56:30.492Z,95294.80
2023-11-05T00:58:33.151Z,95296.45
2023-11-05T01:00:36.266Z,95293.30
2023-11-05T01:02:41.801Z,95293.35
2023-11-05T01:04:45.425Z,95293.80
2023-11-05T01:06:48.198Z,95294.55
2023-11-05T01:08:52.051Z,95297.59
2023-11-05T01:10:55.570Z,95301.23
2023-11-05T01:12:58.669Z,95295.77
2023-11-05T01:15:03.873Z,95289.08
2023-11-05T01:17:06.689Z,95287.39
2023-11-05T01:19:09.640Z,95286.66
2023-11-05T01:21:13.949Z,95285.61
2023-11-05T01:23:17.352Z,95284.97
2023-11-05T01:25:23.179Z,95284.16
2023-11-05T01:27:29.621Z,95283.69
2023-11-05T01:29:32.414Z,95281.46
2023-11-05T01:31:35.093Z,95280.71
2023-11-05T01:33:37.817Z,95279.16
2023-11-05T01:35:40.962Z,95271.77
2023-11-05T01:37:43.962Z,95265.77
2023-11-05T01:39:46.545Z,95262.92
2023-11-05T01:41:49.157Z,95260.05
2023-11-05T01:43:51.909Z,95261.10
2023-11-05T01:45:54.723Z,95256.05
2023-11-05T01:47:57.642Z,95253.46
2023-11-05T01:50:00.734Z,95252.00
2023-11-05T01:52:04.942Z,95242.14
2023-11-05T01:54:09.413Z,95237.95
2023-11-05T01:56:13.229Z,95234.40
2023-11-05T01:58:17.271Z,95225.90
2023-11-05T02:00:21.684Z,95226.14
2023-11-05T02:02:25.696Z,95223.77
2023-11-05T02:04:29.142Z,95221.22
2023-11-05T02:06:32.036Z,95212.70
2023-11-05T02:08:36.775Z,95215.56
2023-11-05T02:10:39.955Z,95212.25
2023-11-05T02:13:01.682Z,95202.25
2023-11-05T02:15:06.251Z,95209.56
2023-11-05T02:17:09.103Z,95213.10
2023-11-05T02:19:12.155Z,95212.09
2023-11-05T02:21:21.940Z,95212.24
2023-11-05T02:23:25.827Z,95203.84
2023-11-05T02:25:28.455Z,95198.45
2023-11-05T02:27:31.796Z,95190.83
2023-11-05T02:29:34.521Z,95184.71
2023-11-05T02:31:37.191Z,95185.45
2023-11-05T02:33:46.179Z,95175.82
2023-11-05T02:35:49.511Z,95174.20
2023-11-05T02:37:52.228Z,95172.83
2023-11-05T02:39:55.624Z,95176.83
2023-11-05T02:41:59.049Z,95176.84
2023-11-05T02:44:02.169Z,95176.37
2023-11-05T02:46:05.638Z,95178.43
2023-11-05T02:48:08.528Z,95177.05
2023-11-05T02:50:12.346Z,95171.43
2023-11-05T02:52:15.391Z,95169.00
2023-11-05T02:54:21.628Z,95163.21
2023-11-05T02:56:25.015Z,95161.02
2023-11-05T02:58:27.848Z,95160.63
2023-11-05T03:00:32.122Z,95159.15
2023-11-05T03:02:36.536Z,95151.01
2023-11-05T03:04:39.438Z,95153.24
2023-11-05T03:06:42.095Z,95157.34
2023-11-05T03:08:45.217Z,95151.26
2023-11-05T03:10:48.230Z,95143.38
2023-11-05T03:12:51.088Z,95135.55
2023-11-05T03:14:53.890Z,95130.52
2023-11-05T03:16:58.094Z,95135.97
2023-11-05T03:19:00.873Z,95137.41
2023-11-05T03:21:07.580Z,95130.13
2023-11-05T03:23:10.355Z,95123.53
2023-11-05T03:25:14.255Z,95118.75
2023-11-05T03:27:17.298Z,95118.77
2023-11-05T03:29:22.383Z,95123.80
2023-11-05T03:31:27.014Z,95121.27
2023-11-05T03:33:29.808Z,95116.14
2023-11-05T03:35:33.923Z,95116.75
2023-11-05T03:37:37.721Z,95110.81
2023-11-05T03:39:40.366Z,95115.94
2023-11-05T03:41:43.043Z,95107.98
2023-11-05T03:43:45.612Z,95112.48
2023-11-05T03:45:48.219Z,95106.44
2023-11-05T03:47:50.891Z,95107.51
2023-11-05T03:49:54.719Z,95112.33
2023-11-05T03:51:59.397Z,95114.45
2023-11-05T03:54:02.318Z,95113.56
2023-11-05T03:56:05.881Z,95107.02
2023-11-05T03:58:08.899Z,95107.99
2023-11-05T04:00:12.318Z,95107.46
2023-11-05T04:02:15.022Z,95100.90
2023-11-05T04:04:18.809Z,95100.80
2023-11-05T04:06:21.918Z,95102.94
2023-11-05T04:08:24.675Z,95098.05
2023-11-05T04:10:27.571Z,95085.95
2023-11-05T04:12:30.478Z,95090.17
2023-11-05T04:14:33.421Z,95092.61
2023-11-05T04:16:38.320Z,95082.67
2023-11-05T04:18:42.337Z,95085.48
2023-11-05T04:20:46.819Z,95078.88
2023-11-05T04:22:49.566Z,95074.05
2023-11-05T04:24:56.560Z,95065.89
2023-11-05T04:26:59.228Z,95065.54
2023-11-05T04:29:02.071Z,95060.16
2023-11-05T04:31:05.047Z,95065.89
2023-11-05T04:33:07.889Z,95065.14
2023-11-05T04:35:11.012Z,95068.41
2023-11-05T04:37:13.846Z,95067.33
2023-11-05T04:39:16.477Z,95059.10
2023-11-05T04:41:25.041Z,95058.69
2023-11-05T04:43:27.976Z,95053.16
2023-11-05T04:45:32.186Z,95061.40
2023-11-05T04:47:34.797Z,95064.34
2023-11-05T04:49:37.614Z,95063.82
2023-11-05T04:51:43.827Z,95069.97
2023-11-05T04:53:46.994Z,95068.42
2023-11-05T04:55:49.644Z,95059.43
2023-11-05T04:57:52.317Z,95046.53
2023-11-05T04:59:54.986Z,95039.35
2023-11-05T05:01:59.834Z,95038.16
2023-11-05T05:04:02.771Z,95036.41
2023-11-05T05:06:07.016Z,95031.14
2023-11-05T05:08:10.161Z,95033.48
2023-11-05T05:10:12.790Z,95032.20
2023-11-05T05:12:15.362Z,95021.89
2023-11-05T05:14:18.135Z,95021.27
2023-11-05T05:16:21.160Z,95020.17
2023-11-05T05:18:24.022Z,95015.04
2023-11-05T05:20:27.094Z,95008.61
2023-11-05T05:22:29.747Z,95013.50
2023-11-05T05:24:32.463Z,95020.61
2023-11-05T05:26:36.145Z,95020.35
2023-11-05T05:28:39.150Z,95022.89
2023-11-05T05:30:41.825Z,95027.52
2023-11-05T05:32:44.384Z,95034.88
2023-11-05T05:34:47.117Z,95033.83
2023-11-05T05:36:49.800Z,95028.59
2023-11-05T05:38:55.918Z,95029.10
2023-11-05T05:40:58.682Z,95028.84
2023-11-05T05:43:01.299Z,95025.81
2023-11-05T05:45:04.881Z,95024.46
2023-11-05T05:47:07.807Z,95022.35
2023-11-05T05:49:10.579Z,95017.48
2023-11-05T05:51:16.202Z,95015.63
2023-11-05T05:53:18.921Z,95008.07
2023-11-05T05:55:21.903Z,95011.22
2023-11-05T05:57:25.767Z,95014.06
2023-11-05T05:59:28.530Z,95007.89
2023-11-05T06:01:31.254Z,95004.02
2023-11-05T06:03:34.052Z,95004.69
2023-11-05T06:05:36.930Z,95002.34
2023-11-05T06:07:39.978Z,95000.65
2023-11-05T06:09:43.776Z,95000.02
2023-11-05T06:11:48.450Z,94997.95
2023-11-05T06:13:50.986Z,94993.94
2023-11-05T06:15:55.066Z,94993.30
2023-11-05T06:17:58.656Z,94991.09
2023-11-05T06:20:01.564Z,94980.52
2023-11-05T06:22:04.255Z,94982.83
2023-11-05T06:24:08.013Z,94979.30
2023-11-05T06:26:10.743Z,94980.17
2023-11-05T06:28:13.559Z,94981.11
2023-11-05T06:30:16.605Z,94984.27
2023-11-05T06:32:21.111Z,94980.02
2023-11-05T06:34:24.286Z,94988.51
2023-11-05T06:36:26.993Z,94996.29
2023-11-05T06:38:30.358Z,95010.96
2023-11-05T06:40:33.218Z,95021.05
2023-11-05T06:42:36.643Z,95019.74
2023-11-05T06:44:39.255Z,95026.08
2023-11-05T06:46:41.969Z,95030.94
2023-11-05T06:48:45.032Z,95023.99
2023-11-05T06:50:53.084Z,95024.80
2023-11-05T06:52:57.757Z,95023.18
2023-11-05T06:55:00.608Z,95025.98
2023-11-05T06:57:06.228Z,95027.64
2023-11-05T06:59:16.761Z,95032.15
2023-11-05T07:01:19.925Z,95037.98
2023-11-05T07:03:25.828Z,95038.35
2023-11-05T07:05:29.545Z,95047.53
2023-11-05T07:07:33.154Z,95051.98
2023-11-05T07:09:37.919Z,95051.34
2023-11-05T07:11:41.607Z,95050.04
2023-11-05T07:13:46.855Z,95053.13
2023-11-05T07:15:49.621Z,95054.53
2023-11-05T07:17:52.566Z,95047.96
2023-11-05T07:19:55.190Z,95056.78
2023-11-05T07:21:57.852Z,95058.27
2023-11-05T07:24:01.001Z,95057.03
2023-11-05T07:26:04.066Z,95059.21
2023-11-05T07:28:09.798Z,95059.21
2023-11-05T07:30:16.145Z,95058.23
2023-11-05T07:32:19.150Z,95062.65
2023-11-05T07:34:21.944Z,95064.77
2023-11-05T07:36:25.920Z,95066.79
2023-11-05T07:38:28.970Z,95065.73
2023-11-05T07:40:32.252Z,95068.54
2023-11-05T07:42:37.655Z,95076.25
2023-11-05T07:44:41.439Z,95067.16
2023-11-05T07:46:44.117Z,95061.84
2023-11-05T07:48:47.589Z,95064.34
2023-11-05T07:50:51.882Z,95066.35
2023-11-05T07:52:54.703Z,95069.09
2023-11-05T07:54:59.773Z,95069.83
2023-11-05T07:57:02.678Z,95065.56
2023-11-05T07:59:06.529Z,95064.98
2023-11-05T08:01:09.390Z,95072.04
2023-11-05T08:03:12.375Z,95072.91
2023-11-05T08:05:16.129Z,95071.81
2023-11-05T08:07:19.849Z,95073.59
2023-11-05T08:09:22.967Z,95078.79
2023-11-05T08:11:25.557Z,95075.06
2023-11-05T08:13:28.278Z,95081.73
2023-11-05T08:15:31.466Z,95082.05
2023-11-05T08:17:35.005Z,95086.59
2023-11-05T08:19:37.666Z,95086.13
2023-11-05T08:21:41.068Z,95087.84
2023-11-05T08:23:46.311Z,95089.17
2023-11-05T08:25:49.845Z,95089.39
2023-11-05T08:27:52.857Z,95089.61
2023-11-05T08:29:55.598Z,95090.96
2023-11-05T08:31:58.475Z,95091.73
2023-11-05T08:34:01.206Z,95095.47
2023-11-05T08:36:06.661Z,95096.16
2023-11-05T08:38:09.284Z,95091.73
2023-11-05T08:40:15.323Z,95091.23
2023-11-05T08:42:19.577Z,95088.00
2023-11-05T08:44:22.158Z,95090.36
2023-11-05T08:46:24.857Z,95088.21
2023-11-05T08:48:27.656Z,95088.99
2023-11-05T08:50:30.395Z,95090.69
2023-11-05T08:52:34.811Z,95089.48
2023-11-05T08:54:37.527Z,95086.45
2023-11-05T08:56:40.480Z,95089.64
2023-11-05T08:58:43.108Z,95091.64
2023-11-05T09:00:46.942Z,95090.38
2023-11-05T09:02:51.762Z,95094.02
2023-11-05T09:04:56.548Z,95096.41
2023-11-05T09:07:00.790Z,95095.09
2023-11-05T09:09:07.270Z,95095.63
2023-11-05T09:11:10.544Z,95102.66
2023-11-05T09:13:14.800Z,95105.98
2023-11-05T09:15:18.580Z,95109.98
2023-11-05T09:17:21.251Z,95115.80
2023-11-05T09:19:24.459Z,95119.75
2023-11-05T09:21:28.711Z,95123.52
2023-11-05T09:23:31.705Z,95122.98
2023-11-05T09:25:34.365Z,95127.89
2023-11-05T09:27:40.544Z,95131.73
2023-11-05T09:29:43.716Z,95138.40
2023-11-05T09:31:49.386Z,95140.81
2023-11-05T09:33:53.181Z,95148.91
2023-11-05T09:35:55.981Z,95156.61
2023-11-05T09:37:59.818Z,95167.44
2023-11-05T09:40:04.571Z,95168.66
2023-11-05T09:42:10.079Z,95187.80
2023-11-05T09:44:12.817Z,95194.22
2023-11-05T09:46:16.769Z,95198.13
2023-11-05T09:48:21.432Z,95201.19
2023-11-05T09:50:25.365Z,95203.05
2023-11-05T09:52:30.099Z,95204.14
2023-11-05T09:54:33.414Z,95211.36
2023-11-05T09:56:36.103Z,95216.80
2023-11-05T09:58:39.428Z,95221.74
2023-11-05T10:00:42.217Z,95228.06
2023-11-05T10:03:03.241Z,95232.36
2023-11-05T10:05:06.930Z,95239.56
2023-11-05T10:07:12.369Z,95239.37
2023-11-05T10:09:17.470Z,95240.59
2023-11-05T10:11:21.151Z,95236.86
2023-11-05T10:13:27.964Z,95247.14
2023-11-05T10:15:30.628Z,95248.79
2023-11-05T10:17:33.229Z,95251.77
2023-11-05T10:19:37.539Z,95248.59
2023-11-05T10:21:41.411Z,95250.45
2023-11-05T10:23:52.879Z,95255.08
2023-11-05T10:25:56.660Z,95252.96
2023-11-05T10:28:01.353Z,95256.34
2023-11-05T10:30:06.017Z,95259.46
2023-11-05T10:32:09.271Z,95257.77
2023-11-05T10:34:13.661Z,95257.44
2023-11-05T10:36:17.352Z,95254.29
2023-11-05T10:38:20.807Z,95254.93
2023-11-05T10:40:24.212Z,95256.52
2023-11-05T10:42:28.404Z,95260.46
2023-11-05T10:44:31.994Z,95262.09
2023-11-05T10:46:36.931Z,95263.77
2023-11-05T10:48:42.274Z,95262.11
2023-11-05T10:50:48.995Z,95274.16
2023-11-05T10:52:57.847Z,95278.19
2023-11-05T10:55:08.313Z,95285.16
2023-11-05T10:57:47.213Z,95286.77
2023-11-05T10:59:49.825Z,95284.57
2023-11-05T11:01:57.284Z,95285.14
2023-11-05T11:04:16.439Z,95288.54
2023-11-05T11:06:19.683Z,95289.76
2023-11-05T11:08:24.120Z,95291.30
2023-11-05T11:10:27.717Z,95292.73
2023-11-05T11:12:35.009Z,95293.05
2023-11-05T11:14:38.136Z,95293.69
2023-11-05T11:16:44.115Z,95296.14
2023-11-05T11:18:48.275Z,95296.56
2023-11-05T11:20:57.176Z,95297.77
2023-11-05T11:23:04.228Z,95299.21
2023-11-05T11:25:08.326Z,95299.80
2023-11-05T11:27:15.417Z,95304.95
2023-11-05T11:29:19.177Z,95305.79
2023-11-05T11:31:23.077Z,95310.15
2023-11-05T11:33:29.150Z,95309.41
2023-11-05T11:35:31.906Z,95313.76
2023-11-05T11:37:38.329Z,95318.77
2023-11-05T11:39:41.319Z,95316.01
2023-11-05T11:41:46.639Z,95317.89
2023-11-05T11:43:49.596Z,95313.44
2023-11-05T11:45:53.329Z,95318.38
2023-11-05T11:47:56.202Z,95324.94
2023-11-05T11:50:13.239Z,95329.52
2023-11-05T11:52:16.628Z,95330.75
2023-11-05T11:54:19.836Z,95330.11
2023-11-05T11:56:22.777Z,95325.89
2023-11-05T11:58:25.916Z,95333.05
2023-11-05T12:00:28.724Z,95334.83
2023-11-05T12:02:31.584Z,95336.58
2023-11-05T12:04:34.673Z,95342.59
2023-11-05T12:06:44.389Z,95340.98
2023-11-05T12:08:47.254Z,95344.81
2023-11-05T12:10:49.986Z,95350.07
2023-11-05T12:12:53.882Z,95361.60
2023-11-05T12:14:56.584Z,95365.91
2023-11-05T12:16:59.221Z,95371.63
2023-11-05T12:19:04.412Z,95381.11
2023-11-05T12:21:12.223Z,95390.07
2023-11-05T12:23:17.066Z,95388.48
2023-11-05T12:25:22.332Z,95391.81
2023-11-05T12:27:25.051Z,95392.91
2023-11-05T12:29:28.250Z,95398.92
2023-11-05T12:31:32.149Z,95392.48
2023-11-05T12:33:36.512Z,95409.64
2023-11-05T12:35:39.296Z,95421.04
2023-11-05T12:37:44.080Z,95426.31
2023-11-05T12:39:47.174Z,95426.20
2023-11-05T12:41:49.816Z,95428.59
2023-11-05T12:43:52.495Z,95435.35
2023-11-05T12:45:57.173Z,95437.27
2023-11-05T12:48:00.948Z,95439.52
2023-11-05T12:50:04.349Z,95446.39
2023-11-05T12:52:07.122Z,95441.00
2023-11-05T12:54:09.764Z,95445.11
2023-11-05T12:56:14.890Z,95453.31
2023-11-05T12:58:18.682Z,95453.30
2023-11-05T13:00:21.421Z,95455.73
2023-11-05T13:02:25.706Z,95462.77
2023-11-05T13:04:29.933Z,95462.66
2023-11-05T13:06:32.924Z,95469.15
2023-11-05T13:08:36.001Z,95466.81
2023-11-05T13:10:39.651Z,95477.10
2023-11-05T13:12:44.342Z,95483.50
2023-11-05T13:14:47.032Z,95484.39
2023-11-05T13:16:50.315Z,95499.58
2023-11-05T13:18:54.045Z,95498.41
2023-11-05T13:20:57.002Z,95498.22
2023-11-05T13:23:02.877Z,95504.77
2023-11-05T13:25:07.876Z,95511.80
2023-11-05T13:27:13.376Z,95517.56
2023-11-05T13:29:17.183Z,95508.95
2023-11-05T13:31:20.921Z,95518.86
2023-11-05T13:33:24.324Z,95527.08
2023-11-05T13:35:28.635Z,95538.08
2023-11-05T13:37:33.443Z,95538.60
2023-11-05T13:39:36.442Z,95540.09
2023-11-05T13:41:39.209Z,95543.49
2023-11-05T13:43:42.045Z,95551.11
2023-11-05T13:45:45.545Z,95555.10
2023-11-05T13:47:48.383Z,95551.70
2023-11-05T13:49:51.828Z,95555.91
2023-11-05T13:51:55.019Z,95554.91
2023-11-05T13:53:58.913Z,95559.64
2023-11-05T13:56:03.612Z,95562.04
2023-11-05T13:58:06.297Z,95561.13
2023-11-05T14:00:10.891Z,95567.35
2023-11-05T14:02:15.936Z,95563.19
2023-11-05T14:04:19.457Z,95567.19
2023-11-05T14:06:22.469Z,95572.04
2023-11-05T14:08:26.736Z,95577.30
2023-11-05T14:10:30.726Z,95580.81
2023-11-05T14:12:35.935Z,95590.61
2023-11-05T14:14:39.540Z,95591.99
2023-11-05T14:16:42.852Z,95590.40
2023-11-05T14:18:45.597Z,95602.74
2023-11-05T14:20:48.571Z,95605.62
2023-11-05T14:22:51.897Z,95612.16
2023-11-05T14:24:55.228Z,95614.30
2023-11-05T14:26:57.908Z,95618.98
2023-11-05T14:29:00.541Z,95623.56
2023-11-05T14:31:03.396Z,95629.46
2023-11-05T14:33:06.977Z,95635.02
2023-11-05T14:35:12.399Z,95640.13
2023-11-05T14:37:15.554Z,95647.90
2023-11-05T14:39:21.396Z,95653.48
2023-11-05T14:41:27.114Z,95658.86
2023-11-05T14:43:29.864Z,95662.64
2023-11-05T14:45:34.131Z,95668.33
2023-11-05T14:47:37.477Z,95676.21
2023-11-05T14:49:40.234Z,95683.66
2023-11-05T14:51:44.667Z,95683.39
2023-11-05T14:53:48.086Z,95685.27
2023-11-05T14:55:51.201Z,95695.23
2023-11-05T14:57:54.433Z,95698.80
2023-11-05T14:59:57.645Z,95702.67
2023-11-05T15:02:00.497Z,95698.31
2023-11-05T15:04:05.055Z,95707.84
2023-11-05T15:06:08.648Z,95707.73
2023-11-05T15:08:11.677Z,95710.92
2023-11-05T15:10:15.611Z,95717.75
2023-11-05T15:12:23.761Z,95723.67
2023-11-05T15:14:29.267Z,95721.58
2023-11-05T15:16:32.531Z,95726.91
2023-11-05T15:18:39.173Z,95735.80
2023-11-05T15:20:44.982Z,95745.08
2023-11-05T15:22:47.766Z,95747.36
2023-11-05T15:24:51.150Z,95748.79
2023-11-05T15:26:53.935Z,95749.77
2023-11-05T15:28:57.949Z,95751.79
2023-11-05T15:31:02.607Z,95753.42
2023-11-05T15:33:07.305Z,95752.36
2023-11-05T15:35:10.124Z,95759.71
2023-11-05T15:37:14.377Z,95758.17
2023-11-05T15:39:17.665Z,95764.51
2023-11-05T15:41:23.596Z,95771.59
2023-11-05T15:43:28.180Z,95778.45
2023-11-05T15:45:32.425Z,95781.65
2023-11-05T15:47:35.089Z,95786.98
2023-11-05T15:49:41.149Z,95798.52
2023-11-05T15:51:46.168Z,95797.16
2023-11-05T15:53:48.912Z,95806.95
2023-11-05T15:55:52.415Z,95808.23
2023-11-05T15:57:55.071Z,95810.58
2023-11-05T15:59:59.480Z,95815.21
2023-11-05T16:02:02.929Z,95817.45
2023-11-05T16:04:11.603Z,95818.56
2023-11-05T16:06:14.958Z,95823.95
2023-11-05T16:08:18.072Z,95830.19
2023-11-05T16:10:21.438Z,95832.63
2023-11-05T16:12:25.031Z,95844.77
2023-11-05T16:14:30.889Z,95854.41
2023-11-05T16:16:34.540Z,95860.73
2023-11-05T16:18:37.887Z,95863.83
2023-11-05T16:20:41.512Z,95868.99
2023-11-05T16:22:46.777Z,95873.30
2023-11-05T16:24:50.061Z,95872.67
2023-11-05T16:26:52.793Z,95877.33
2023-11-05T16:28:55.857Z,95884.55
2023-11-05T16:30:59.791Z,95889.40
2023-11-05T16:33:03.350Z,95895.19
2023-11-05T16:35:08.448Z,95903.55
2023-11-05T16:37:13.555Z,95906.80
2023-11-05T16:39:19.902Z,95915.69
2023-11-05T16:41:22.769Z,95923.54
2023-11-05T16:43:26.247Z,95930.83
2023-11-05T16:45:30.144Z,95936.92
2023-11-05T16:47:33.843Z,95948.86
2023-11-05T16:49:36.874Z,95955.63
2023-11-05T16:51:44.745Z,95963.97
2023-11-05T16:53:48.165Z,95969.70
2023-11-05T16:55:51.542Z,95979.83
2023-11-05T16:57:55.016Z,95985.52
2023-11-05T16:59:57.689Z,95997.92
2023-11-05T17:02:01.799Z,96004.10
2023-11-05T17:04:06.608Z,96010.96
2023-11-05T17:06:11.479Z,96022.30
2023-11-05T17:08:15.048Z,96022.08
2023-11-05T17:10:19.544Z,96029.38
2023-11-05T17:12:23.725Z,96030.11
2023-11-05T17:14:27.169Z,96039.02
2023-11-05T17:16:33.297Z,96042.17
2023-11-05T17:18:37.731Z,96046.73
2023-11-05T17:20:40.656Z,96058.37
2023-11-05T17:22:44.942Z,96052.53
2023-11-05T17:24:48.006Z,96060.45
2023-11-05T17:26:54.403Z,96057.85
2023-11-05T17:28:58.274Z,96065.36
2023-11-05T17:31:01.510Z,96071.63
2023-11-05T17:33:07.827Z,96071.88
2023-11-05T17:35:12.913Z,96084.70
2023-11-05T17:37:17.902Z,96091.21
2023-11-05T17:39:22.390Z,96097.25
2023-11-05T17:41:25.537Z,96105.43
2023-11-05T17:43:29.778Z,96120.75
2023-11-05T17:45:35.216Z,96131.91
2023-11-05T17:47:43.136Z,96144.86
2023-11-05T17:49:48.624Z,96165.90
2023-11-05T17:51:52.539Z,96176.79
2023-11-05T17:53:56.322Z,96196.48
2023-11-05T17:56:01.089Z,96189.23
2023-11-05T17:58:05.313Z,96193.18
2023-11-05T18:00:09.770Z,96200.02
2023-11-05T18:02:12.543Z,96206.95
2023-11-05T18:04:19.021Z,96203.96
2023-11-05T18:06:24.662Z,96211.23
2023-11-05T18:08:31.549Z,96208.56
2023-11-05T18:10:46.923Z,96210.63
2023-11-05T18:12:58.304Z,96226.83
2023-11-05T18:15:06.014Z,96236.67
2023-11-05T18:17:09.797Z,96248.09
2023-11-05T18:19:13.492Z,96258.38
2023-11-05T18:21:17.028Z,96265.02
2023-11-05T18:23:20.778Z,96269.04
2023-11-05T18:25:25.076Z,96268.70
2023-11-05T18:27:28.386Z,96268.60
2023-11-05T18:29:31.783Z,96274.94
2023-11-05T18:31:36.000Z,96280.36
2023-11-05T18:33:39.624Z,96281.73
2023-11-05T18:35:45.180Z,96285.45
2023-11-05T18:37:49.090Z,96290.48
2023-11-05T18:39:54.382Z,96292.29
2023-11-05T18:41:58.606Z,96298.48
2023-11-05T18:44:02.420Z,96303.17
2023-11-05T18:46:08.828Z,96309.48
2023-11-05T18:48:16.074Z,96313.48
2023-11-05T18:50:21.778Z,96320.10
2023-11-05T18:52:26.885Z,96326.09
2023-11-05T18:54:30.872Z,96337.35
2023-11-05T18:56:37.150Z,96343.50
2023-11-05T18:58:40.128Z,96348.80
2023-11-05T19:00:44.984Z,96362.30
2023-11-05T19:02:51.622Z,96376.63
2023-11-05T19:04:55.342Z,96385.09
2023-11-05T19:07:16.881Z,96390.81
2023-11-05T19:09:20.826Z,96400.23
2023-11-05T19:11:23.433Z,96409.13
2023-11-05T19:13:29.119Z,96416.89
2023-11-05T19:15:32.821Z,96424.71
2023-11-05T19:17:36.518Z,96436.84
2023-11-05T19:19:40.433Z,96442.56
2023-11-05T19:21:44.690Z,96446.58
2023-11-05T19:23:47.282Z,96453.43
2023-11-05T19:25:51.626Z,96464.60
2023-11-05T19:27:55.093Z,96474.44
2023-11-05T19:29:57.836Z,96466.91
2023-11-05T19:32:01.548Z,96477.86
2023-11-05T19:34:05.884Z,96487.65
2023-11-05T19:36:12.721Z,96491.95
2023-11-05T19:38:17.526Z,96503.36
2023-11-05T19:40:22.165Z,96511.70
2023-11-05T19:42:28.476Z,96511.45
2023-11-05T19:44:33.146Z,96523.40
2023-11-05T19:46:36.645Z,96521.27
2023-11-05T19:48:40.610Z,96528.86
2023-11-05T19:50:45.862Z,96534.64
2023-11-05T19:52:49.008Z,96539.98
2023-11-05T19:54:53.228Z,96548.38
2023-11-05T19:56:56.625Z,96552.31
2023-11-05T19:59:01.776Z,96558.54
2023-11-05T20:01:09.508Z,96565.59
2023-11-05T20:03:24.589Z,96569.58
2023-11-05T20:05:28.798Z,96569.03
2023-11-05T20:07:35.301Z,96581.91
2023-11-05T20:09:40.676Z,96587.16
2023-11-05T20:11:44.726Z,96590.19
2023-11-05T20:13:48.023Z,96595.98
2023-11-05T20:15:52.495Z,96602.16
2023-11-05T20:17:57.580Z,96616.89
2023-11-05T20:20:01.627Z,96617.40
2023-11-05T20:22:06.318Z,96624.77
2023-11-05T20:24:10.252Z,96626.34
2023-11-05T20:26:13.927Z,96639.06
2023-11-05T20:28:17.206Z,96640.83
2023-11-05T20:30:19.957Z,96641.95
2023-11-05T20:32:22.732Z,96649.20
2023-11-05T20:34:28.622Z,96656.91
2023-11-05T20:36:33.898Z,96663.14
2023-11-05T20:38:37.244Z,96667.35
2023-11-05T20:40:45.498Z,96666.71
2023-11-05T20:42:49.854Z,96675.22
2023-11-05T20:44:53.326Z,96678.09
2023-11-05T20:46:55.950Z,96681.91
2023-11-05T20:49:04.288Z,96684.13
2023-11-05T20:51:16.418Z,96690.40
2023-11-05T20:53:19.124Z,96695.83
2023-11-05T20:55:22.122Z,96701.39
2023-11-05T20:57:28.364Z,96702.88
2023-11-05T20:59:30.980Z,96704.26
2023-11-05T21:01:35.314Z,96708.20
2023-11-05T21:03:39.904Z,96708.95
2023-11-05T21:05:43.918Z,96714.93
2023-11-05T21:07:47.533Z,96721.44
2023-11-05T21:09:51.297Z,96726.17
2023-11-05T21:11:57.843Z,96732.47
2023-11-05T21:14:03.474Z,96733.21
2023-11-05T21:16:08.092Z,96735.93
2023-11-05T21:18:11.180Z,96743.23
2023-11-05T21:20:13.952Z,96749.71
2023-11-05T21:22:17.577Z,96757.41
2023-11-05T21:24:20.295Z,96756.79
2023-11-05T21:26:23.505Z,96760.86
2023-11-05T21:28:26.346Z,96766.41
2023-11-05T21:30:29.334Z,96767.44
2023-11-05T21:32:31.969Z,96769.03
2023-11-05T21:34:38.045Z,96772.80
2023-11-05T21:36:40.761Z,96781.22
2023-11-05T21:38:46.572Z,96784.14
2023-11-05T21:40:49.655Z,96792.45
2023-11-05T21:42:53.964Z,96793.70
2023-11-05T21:44:59.486Z,96800.23
2023-11-05T21:47:04.115Z,96809.73
2023-11-05T21:49:06.874Z,96807.06
2023-11-05T21:51:11.916Z,96810.08
2023-11-05T21:53:17.143Z,96815.34
2023-11-05T21:55:20.982Z,96816.80
2023-11-05T21:57:23.628Z,96821.29
2023-11-05T21:59:29.359Z,96820.72
2023-11-05T22:01:32.116Z,96823.70
2023-11-05T22:03:34.974Z,96832.14
2023-11-05T22:05:37.824Z,96830.98
2023-11-05T22:07:41.306Z,96828.58
2023-11-05T22:09:43.957Z,96826.24
2023-11-05T22:11:49.663Z,96825.11
2023-11-05T22:13:52.985Z,96820.35
2023-11-05T22:15:58.622Z,96824.44
2023-11-05T22:18:01.401Z,96830.50
2023-11-05T22:20:07.674Z,96826.77
2023-11-05T22:22:12.107Z,96831.67
2023-11-05T22:24:17.508Z,96831.23
2023-11-05T22:26:20.352Z,96832.94
2023-11-05T22:28:22.953Z,96841.23
2023-11-05T22:30:26.223Z,96843.33
2023-11-05T22:32:28.993Z,96843.41
2023-11-05T22:34:31.777Z,96842.16
2023-11-05T22:36:35.664Z,96846.02
2023-11-05T22:38:38.607Z,96850.09
2023-11-05T22:40:44.171Z,96858.77
2023-11-05T22:42:47.040Z,96864.55
2023-11-05T22:44:49.637Z,96860.03
2023-11-05T22:46:52.226Z,96862.23
2023-11-05T22:48:55.478Z,96866.38
2023-11-05T22:50:58.475Z,96874.70
2023-11-05T22:53:01.271Z,96871.39
2023-11-05T22:55:04.926Z,96871.15
2023-11-05T22:57:07.784Z,96872.90
2023-11-05T22:59:14.477Z,96877.48
2023-11-05T23:01:19.532Z,96877.20
2023-11-05T23:03:24.349Z,96882.24
2023-11-05T23:05:27.463Z,96887.27
2023-11-05T23:07:30.289Z,96888.27
2023-11-05T23:09:32.907Z,96887.00
2023-11-05T23:11:37.028Z,96890.77
2023-11-05T23:13:40.491Z,96891.95
2023-11-05T23:15:43.271Z,96894.54
2023-11-05T23:17:46.465Z,96900.64
2023-11-05T23:19:50.711Z,96901.20
2023-11-05T23:21:54.265Z,96897.52
2023-11-05T23:23:58.384Z,96906.09
2023-11-05T23:26:02.776Z,96904.42
2023-11-05T23:28:05.775Z,96909.73
2023-11-05T23:30:09.150Z,96909.57
2023-11-05T23:32:12.569Z,96912.30
2023-11-05T23:34:15.101Z,96911.36
2023-11-05T23:36:17.803Z,96912.67
2023-11-05T23:38:20.722Z,96913.17
2023-11-05T23:40:23.437Z,96915.23
2023-11-05T23:42:26.055Z,96919.39
2023-11-05T23:44:28.709Z,96920.60
2023-11-05T23:46:31.351Z,96920.48
2023-11-05T23:48:34.290Z,96931.16
2023-11-05T23:50:37.971Z,96931.17
2023-11-05T23:52:41.325Z,96931.89
2023-11-05T23:54:44.469Z,96937.85
2023-11-05T23:56:48.959Z,96936.10
2023-11-05T23:58:51.648Z,96945.52
